| Date | Time | Temp. (oF) | Dew Point (oF) | Rel. Hum. (%) | Press. (in.) | Wind Dir. | Wind Speed (mph) | Hourly Rainfall (in.) |
|
|---|---|---|---|---|---|---|---|---|---|
| 1 | 02/19 | 00:00 | 24 | 21 | 89 | 30.27 | SSW | 1 | 0.00 |
| 2 | 02/18 | 23:00 | 25 | 22 | 89 | 30.25 | SSW | 2 | 0.00 |
| 3 | 02/18 | 22:00 | 25 | 22 | 91 | 30.25 | SSW | 4 | 0.00 |
| 4 | 02/18 | 21:00 | 27 | 23 | 87 | 30.23 | SW | 2 | 0.00 |
| 5 | 02/18 | 20:00 | 29 | 25 | 85 | 30.19 | W | 2 | 0.00 |
| 6 | 02/18 | 19:00 | 30 | 26 | 85 | 30.19 | WSW | 2 | 0.00 |
| 7 | 02/18 | 18:00 | 31 | 26 | 83 | 30.18 | SSW | 3 | 0.00 |
| 8 | 02/18 | 17:00 | 32 | 26 | 80 | 30.13 | SSW | 1 | 0.00 |
| 9 | 02/18 | 16:00 | 33 | 26 | 78 | 30.10 | SW | 3 | 0.00 |
| 10 | 02/18 | 15:00 | 32 | 26 | 79 | 30.08 | W | 1 | 0.00 |
| 11 | 02/18 | 14:00 | 30 | 24 | 81 | 30.09 | NW | 4 | 0.02 |
| 12 | 02/18 | 13:00 | 28 | 24 | 85 | 30.11 | NW | 4 | 0.15 |
| 13 | 02/18 | 12:00 | 26 | 23 | 92 | 30.12 | SW | 5 | 0.15 |
| 14 | 02/18 | 11:00 | 25 | 24 | 96 | 30.12 | SW | 3 | 0.16 |
| 15 | 02/18 | 10:00 | 24 | 23 | 99 | 30.10 | NW | 2 | 0.16 |
| 16 | 02/18 | 09:00 | 23 | 23 | 100 | 30.11 | W | 2 | 0.01 |
| 17 | 02/18 | 08:00 | 22 | 22 | 100 | 30.09 | WSW | 4 | 0.02 |
| 18 | 02/18 | 07:00 | 21 | 21 | 100 | 30.06 | NNW | 1 | 0.00 |
| 19 | 02/18 | 06:00 | 21 | 21 | 100 | 30.05 | W | 3 | 0.01 |
| 20 | 02/18 | 05:00 | 21 | 21 | 100 | 30.04 | NW | 2 | 0.00 |
| 21 | 02/18 | 04:00 | 21 | 21 | 100 | 30.03 | NW | 2 | 0.01 |
| 22 | 02/18 | 03:00 | 21 | 20 | 99 | 30.04 | WNW | 3 | 0.00 |
| 23 | 02/18 | 02:00 | 21 | 20 | 98 | 30.04 | NNE | 3 | 0.00 |
| 24 | 02/18 | 01:00 | 21 | 20 | 96 | 30.05 | N | 5 | 0.00 |